createdAt,value
2022-09-17T00:00:22.125Z,11.38
2022-09-17T00:02:25.533Z,11.37
2022-09-17T00:04:27.973Z,11.35
2022-09-17T00:06:30.474Z,11.32
2022-09-17T00:08:33.578Z,11.31
2022-09-17T00:10:39.878Z,11.30
2022-09-17T00:12:41.623Z,11.27
2022-09-17T00:14:43.093Z,11.25
2022-09-17T00:16:46.766Z,11.23
2022-09-17T00:18:48.202Z,11.22
2022-09-17T00:20:49.726Z,11.21
2022-09-17T00:22:51.163Z,11.19
2022-09-17T00:24:52.691Z,11.20
2022-09-17T00:26:54.210Z,11.20
2022-09-17T00:28:57.295Z,11.19
2022-09-17T00:30:58.852Z,11.20
2022-09-17T00:33:00.351Z,11.18
2022-09-17T00:35:01.823Z,11.18
2022-09-17T00:37:03.259Z,11.18
2022-09-17T00:39:06.881Z,11.17
2022-09-17T00:41:08.632Z,11.16
2022-09-17T00:43:12.344Z,11.16
2022-09-17T00:45:14.385Z,11.15
2022-09-17T00:47:20.963Z,11.14
2022-09-17T00:49:29.087Z,11.13
2022-09-17T00:51:45.523Z,11.12
2022-09-17T00:53:47.286Z,11.09
2022-09-17T00:55:56.054Z,11.09
2022-09-17T00:58:01.362Z,11.08
2022-09-17T01:00:07.106Z,11.10
2022-09-17T01:02:09.031Z,11.10
2022-09-17T01:04:17.909Z,11.09
2022-09-17T01:06:22.722Z,11.03
2022-09-17T01:08:34.663Z,11.06
2022-09-17T01:11:04.652Z,11.04
2022-09-17T01:13:15.278Z,11.06
2022-09-17T01:15:55.017Z,11.04
2022-09-17T01:18:15.406Z,11.04
2022-09-17T01:20:31.765Z,11.04
2022-09-17T01:22:58.159Z,11.05
2022-09-17T01:25:17.623Z,11.01
2022-09-17T01:27:56.560Z,11.01
2022-09-17T01:30:16.262Z,11.03
2022-09-17T01:32:21.456Z,11.02
2022-09-17T01:34:37.481Z,11.00
2022-09-17T01:36:55.920Z,11.00
2022-09-17T01:39:03.482Z,11.00
2022-09-17T01:41:24.087Z,11.00
2022-09-17T01:43:34.390Z,10.98
2022-09-17T01:45:44.881Z,10.97
2022-09-17T01:47:58.495Z,10.96
2022-09-17T01:50:17.571Z,10.95
2022-09-17T01:52:20.727Z,10.96
2022-09-17T01:54:32.432Z,10.96
2022-09-17T01:56:39.887Z,10.97
2022-09-17T01:58:48.289Z,10.97
2022-09-17T02:00:59.689Z,10.96
2022-09-17T02:03:04.823Z,10.95
2022-09-17T02:05:16.115Z,10.93
2022-09-17T02:07:22.923Z,10.91
2022-09-17T02:09:30.017Z,10.91
2022-09-17T02:11:37.142Z,10.89
2022-09-17T02:13:48.282Z,10.89
2022-09-17T02:16:02.361Z,10.89
2022-09-17T02:18:18.171Z,10.88
2022-09-17T02:20:26.963Z,10.86
2022-09-17T02:22:52.525Z,10.89
2022-09-17T02:25:14.844Z,10.87
2022-09-17T02:27:34.799Z,10.89
2022-09-17T02:29:39.922Z,10.90
2022-09-17T02:31:42.486Z,10.90
2022-09-17T02:33:50.240Z,10.93
2022-09-17T02:35:52.216Z,10.95
2022-09-17T02:37:53.760Z,10.94
2022-09-17T02:39:55.946Z,10.95
2022-09-17T02:42:23.271Z,10.95
2022-09-17T02:44:55.745Z,10.94
2022-09-17T02:47:29.860Z,10.93
2022-09-17T02:49:46.144Z,10.92
2022-09-17T02:51:53.767Z,10.92
2022-09-17T02:54:16.356Z,10.92
2022-09-17T02:56:34.046Z,10.92
2022-09-17T02:58:45.747Z,10.91
2022-09-17T03:00:48.030Z,10.91
2022-09-17T03:03:04.201Z,10.92
2022-09-17T03:05:08.325Z,10.92
2022-09-17T03:07:12.032Z,10.91
2022-09-17T03:09:16.410Z,10.91
2022-09-17T03:11:18.174Z,10.90
2022-09-17T03:13:19.999Z,10.87
2022-09-17T03:15:21.683Z,10.87
2022-09-17T03:17:23.222Z,10.84
2022-09-17T03:19:24.730Z,10.81
2022-09-17T03:21:26.551Z,10.79
2022-09-17T03:23:28.176Z,10.77
2022-09-17T03:25:29.596Z,10.73
2022-09-17T03:27:31.044Z,10.70
2022-09-17T03:29:33.438Z,10.69
2022-09-17T03:31:35.045Z,10.67
2022-09-17T03:33:36.662Z,10.64
2022-09-17T03:35:38.201Z,10.63
2022-09-17T03:37:39.669Z,10.61
2022-09-17T03:39:41.129Z,10.58
2022-09-17T03:41:42.565Z,10.56
2022-09-17T03:43:44.008Z,10.52
2022-09-17T03:45:45.439Z,10.53
2022-09-17T03:47:46.849Z,10.51
2022-09-17T03:49:48.349Z,10.50
2022-09-17T03:51:50.045Z,10.49
2022-09-17T03:53:51.488Z,10.48
2022-09-17T03:55:53.222Z,10.47
2022-09-17T03:57:56.057Z,10.44
2022-09-17T03:59:57.530Z,10.41
2022-09-17T04:01:59.113Z,10.39
2022-09-17T04:04:00.781Z,10.38
2022-09-17T04:06:02.413Z,10.38
2022-09-17T04:08:03.849Z,10.36
2022-09-17T04:10:05.845Z,10.35
2022-09-17T04:12:07.310Z,10.34
2022-09-17T04:14:08.725Z,10.32
2022-09-17T04:16:10.217Z,10.33
2022-09-17T04:18:12.323Z,10.33
2022-09-17T04:20:13.799Z,10.33
2022-09-17T04:22:15.251Z,10.33
2022-09-17T04:24:16.681Z,10.33
2022-09-17T04:26:18.140Z,10.33
2022-09-17T04:28:19.643Z,10.34
2022-09-17T04:30:21.206Z,10.34
2022-09-17T04:32:22.664Z,10.33
2022-09-17T04:34:24.108Z,10.33
2022-09-17T04:36:25.597Z,10.32
2022-09-17T04:38:27.084Z,10.31
2022-09-17T04:40:29.561Z,10.29
2022-09-17T04:42:31.032Z,10.29
2022-09-17T04:44:32.519Z,10.26
2022-09-17T04:46:34.140Z,10.26
2022-09-17T04:48:35.614Z,10.24
2022-09-17T04:50:37.054Z,10.25
2022-09-17T04:52:43.143Z,10.23
2022-09-17T04:54:44.576Z,10.27
2022-09-17T04:56:46.046Z,10.26
2022-09-17T04:58:47.541Z,10.26
2022-09-17T05:00:48.991Z,10.25
2022-09-17T05:02:53.585Z,10.25
2022-09-17T05:04:56.852Z,10.25
2022-09-17T05:06:58.377Z,10.27
2022-09-17T05:09:00.127Z,10.23
2022-09-17T05:11:01.930Z,10.22
2022-09-17T05:13:03.472Z,10.20
2022-09-17T05:15:05.488Z,10.19
2022-09-17T05:17:06.979Z,10.15
2022-09-17T05:19:08.447Z,10.11
2022-09-17T05:21:09.876Z,10.10
2022-09-17T05:23:11.362Z,10.09
2022-09-17T05:25:14.953Z,10.08
2022-09-17T05:27:16.506Z,10.06
2022-09-17T05:29:17.925Z,10.06
2022-09-17T05:31:19.388Z,10.05
2022-09-17T05:33:21.179Z,10.04
2022-09-17T05:35:22.611Z,10.03
2022-09-17T05:37:24.068Z,10.03
2022-09-17T05:39:25.521Z,10.01
2022-09-17T05:41:26.982Z,10.03
2022-09-17T05:43:28.435Z,10.01
2022-09-17T05:45:30.533Z,9.94
2022-09-17T05:47:32.013Z,9.92
2022-09-17T05:49:33.458Z,9.90
2022-09-17T05:51:34.898Z,9.88
2022-09-17T05:53:36.389Z,9.85
2022-09-17T05:55:38.178Z,9.82
2022-09-17T05:57:39.643Z,9.79
2022-09-17T05:59:41.069Z,9.77
2022-09-17T06:01:42.731Z,9.79
2022-09-17T06:03:44.293Z,9.80
2022-09-17T06:05:58.328Z,9.83
2022-09-17T06:07:59.916Z,9.86
2022-09-17T06:10:01.339Z,9.85
2022-09-17T06:12:03.864Z,9.85
2022-09-17T06:14:05.405Z,9.84
2022-09-17T06:16:06.964Z,9.86
2022-09-17T06:18:08.509Z,9.92
2022-09-17T06:20:10.204Z,9.95
2022-09-17T06:22:11.762Z,9.94
2022-09-17T06:24:13.373Z,9.95
2022-09-17T06:26:15.314Z,9.96
2022-09-17T06:28:16.760Z,9.99
2022-09-17T06:30:18.402Z,10.01
2022-09-17T06:32:19.849Z,10.03
2022-09-17T06:34:21.280Z,10.06
2022-09-17T06:36:22.778Z,10.06
2022-09-17T06:38:24.290Z,10.08
2022-09-17T06:40:26.178Z,10.08
2022-09-17T06:42:28.654Z,10.13
2022-09-17T06:44:30.104Z,10.14
2022-09-17T06:46:31.644Z,10.18
2022-09-17T06:48:34.785Z,10.23
2022-09-17T06:50:39.409Z,10.27
2022-09-17T06:52:51.326Z,10.31
2022-09-17T06:54:52.789Z,10.35
2022-09-17T06:56:54.207Z,10.38
2022-09-17T06:58:55.650Z,10.42
2022-09-17T07:01:01.360Z,10.43
2022-09-17T07:03:03.077Z,10.45
2022-09-17T07:05:05.430Z,10.49
2022-09-17T07:07:06.894Z,10.55
2022-09-17T07:09:11.108Z,10.61
2022-09-17T07:11:13.544Z,10.64
2022-09-17T07:13:15.310Z,10.67
2022-09-17T07:15:17.093Z,10.72
2022-09-17T07:17:18.556Z,10.81
2022-09-17T07:19:20.015Z,10.90
2022-09-17T07:21:21.459Z,10.98
2022-09-17T07:23:28.256Z,11.01
2022-09-17T07:25:29.717Z,11.04
2022-09-17T07:27:32.488Z,11.05
2022-09-17T07:29:33.932Z,11.02
2022-09-17T07:31:35.409Z,11.01
2022-09-17T07:33:37.809Z,11.01
2022-09-17T07:35:39.234Z,11.01
2022-09-17T07:37:40.668Z,11.08
2022-09-17T07:39:42.751Z,11.13
2022-09-17T07:41:44.169Z,11.22
2022-09-17T07:43:45.722Z,11.28
2022-09-17T07:45:47.164Z,11.37
2022-09-17T07:47:48.591Z,11.46
2022-09-17T07:49:50.038Z,11.53
2022-09-17T07:51:51.731Z,11.61
2022-09-17T07:53:58.167Z,11.72
2022-09-17T07:56:00.737Z,11.79
2022-09-17T07:58:02.152Z,11.84
2022-09-17T08:00:04.388Z,11.92
2022-09-17T08:02:12.323Z,12.00
2022-09-17T08:04:14.394Z,12.02
2022-09-17T08:06:18.408Z,12.08
2022-09-17T08:08:21.390Z,12.12
2022-09-17T08:10:23.451Z,12.18
2022-09-17T08:12:24.872Z,12.23
2022-09-17T08:14:29.677Z,12.26
2022-09-17T08:16:31.644Z,12.31
2022-09-17T08:18:34.362Z,12.37
2022-09-17T08:20:35.813Z,12.49
2022-09-17T08:22:37.461Z,12.55
2022-09-17T08:24:38.916Z,12.62
2022-09-17T08:26:41.185Z,12.73
2022-09-17T08:28:47.809Z,12.79
2022-09-17T08:30:50.478Z,12.81
2022-09-17T08:32:56.005Z,12.83
2022-09-17T08:34:58.395Z,12.88
2022-09-17T08:36:59.919Z,12.90
2022-09-17T08:39:01.624Z,12.89
2022-09-17T08:41:03.142Z,12.88
2022-09-17T08:43:04.718Z,12.86
2022-09-17T08:45:14.159Z,12.78
2022-09-17T08:47:48.158Z,12.55
2022-09-17T08:49:56.839Z,12.35
2022-09-17T08:52:02.870Z,12.16
2022-09-17T08:54:42.503Z,12.07
2022-09-17T08:56:47.993Z,12.00
2022-09-17T08:59:16.456Z,11.97
2022-09-17T09:01:43.451Z,11.96
2022-09-17T09:04:03.067Z,12.02
2022-09-17T09:06:10.474Z,12.11
2022-09-17T09:08:24.610Z,12.21
2022-09-17T09:10:31.177Z,12.21
2022-09-17T09:12:36.704Z,12.18
2022-09-17T09:14:56.008Z,12.11
2022-09-17T09:16:57.924Z,12.07
2022-09-17T09:19:34.031Z,12.00
2022-09-17T09:21:44.324Z,11.94
2022-09-17T09:23:48.836Z,11.91
2022-09-17T09:26:21.136Z,11.72
2022-09-17T09:29:05.875Z,11.22
2022-09-17T09:31:55.071Z,10.86
2022-09-17T09:33:57.701Z,10.77
2022-09-17T09:35:59.745Z,10.66
2022-09-17T09:38:31.449Z,10.63
2022-09-17T09:40:48.718Z,10.56
2022-09-17T09:42:53.592Z,10.57
2022-09-17T09:45:04.799Z,10.57
2022-09-17T09:47:20.608Z,10.62
2022-09-17T09:49:24.958Z,10.61
2022-09-17T09:52:23.573Z,10.59
2022-09-17T09:54:49.730Z,10.62
2022-09-17T09:56:59.009Z,10.63
2022-09-17T09:59:01.319Z,10.63
2022-09-17T10:01:15.630Z,10.63
2022-09-17T10:03:21.166Z,10.61
2022-09-17T10:05:23.949Z,10.58
2022-09-17T10:07:25.394Z,10.57
2022-09-17T10:09:27.822Z,10.59
2022-09-17T10:11:33.111Z,10.60
2022-09-17T10:13:36.769Z,10.61
2022-09-17T10:15:38.304Z,10.64
2022-09-17T10:17:39.877Z,10.67
2022-09-17T10:19:42.541Z,10.62
2022-09-17T10:21:44.443Z,10.61
2022-09-17T10:23:46.480Z,10.61
2022-09-17T10:25:49.088Z,10.56
2022-09-17T10:27:50.832Z,10.51
2022-09-17T10:30:17.173Z,10.48
2022-09-17T10:32:21.019Z,10.47
2022-09-17T10:34:22.423Z,10.48
2022-09-17T10:36:44.130Z,10.45
2022-09-17T10:38:46.488Z,10.49
2022-09-17T10:40:48.042Z,10.50
2022-09-17T10:42:51.219Z,10.48
2022-09-17T10:44:57.310Z,10.50
2022-09-17T10:47:05.520Z,10.46
2022-09-17T10:49:22.348Z,10.41
2022-09-17T10:51:25.388Z,10.34
2022-09-17T10:53:27.384Z,10.33
2022-09-17T10:55:37.211Z,10.31
2022-09-17T10:57:50.960Z,10.27
2022-09-17T11:00:04.658Z,10.25
2022-09-17T11:02:24.387Z,10.20
2022-09-17T11:04:32.726Z,10.24
2022-09-17T11:06:52.155Z,10.24
2022-09-17T11:09:20.825Z,10.22
2022-09-17T11:11:58.002Z,10.14
2022-09-17T11:14:08.773Z,10.10
2022-09-17T11:16:37.553Z,10.05
2022-09-17T11:19:22.865Z,10.01
2022-09-17T11:21:56.731Z,9.99
2022-09-17T11:24:07.450Z,9.96
2022-09-17T11:26:32.105Z,9.96
2022-09-17T11:28:33.539Z,9.97
2022-09-17T11:31:00.717Z,9.98
2022-09-17T11:33:21.080Z,9.97
2022-09-17T11:36:04.386Z,10.00
2022-09-17T11:38:20.200Z,10.07
2022-09-17T11:40:30.212Z,10.11
2022-09-17T11:42:38.856Z,10.13
2022-09-17T11:44:51.733Z,10.14
2022-09-17T11:47:05.665Z,10.16
2022-09-17T11:49:30.195Z,10.15
2022-09-17T11:51:36.973Z,10.17
2022-09-17T11:53:47.537Z,10.19
2022-09-17T11:55:55.724Z,10.19
2022-09-17T11:58:02.827Z,10.22
2022-09-17T12:00:25.168Z,10.26
2022-09-17T12:02:32.696Z,10.33
2022-09-17T12:04:49.940Z,10.38
2022-09-17T12:07:02.661Z,10.42
2022-09-17T12:09:15.257Z,10.46
2022-09-17T12:11:26.705Z,10.54
2022-09-17T12:13:34.069Z,10.59
2022-09-17T12:15:39.210Z,10.66
2022-09-17T12:18:03.859Z,10.72
2022-09-17T12:20:34.363Z,10.82
2022-09-17T12:22:41.342Z,10.85
2022-09-17T12:24:43.186Z,10.91
2022-09-17T12:26:49.997Z,10.96
2022-09-17T12:28:54.599Z,11.00
2022-09-17T12:31:05.864Z,11.05
2022-09-17T12:33:19.137Z,11.10
2022-09-17T12:36:03.401Z,11.15
2022-09-17T12:38:51.299Z,11.23
2022-09-17T12:41:09.256Z,11.26
2022-09-17T12:43:33.759Z,11.31
2022-09-17T12:46:00.310Z,11.42
2022-09-17T12:48:08.359Z,11.47
2022-09-17T12:50:39.448Z,11.58
2022-09-17T12:53:07.155Z,11.69
2022-09-17T12:55:24.784Z,11.73
2022-09-17T12:57:40.994Z,11.77
2022-09-17T12:59:52.717Z,11.84
2022-09-17T13:02:12.813Z,11.88
2022-09-17T13:04:43.651Z,11.89
2022-09-17T13:07:17.876Z,11.94
2022-09-17T13:10:03.759Z,11.94
2022-09-17T13:12:22.154Z,11.97
2022-09-17T13:14:56.483Z,11.94
2022-09-17T13:17:16.600Z,11.95
2022-09-17T13:19:33.791Z,12.05
2022-09-17T13:21:58.662Z,12.17
2022-09-17T13:24:00.793Z,12.29
2022-09-17T13:26:05.712Z,12.45
2022-09-17T13:28:11.646Z,12.57
2022-09-17T13:30:18.300Z,12.64
2022-09-17T13:32:35.007Z,12.66
2022-09-17T13:34:36.546Z,12.67
2022-09-17T13:36:51.316Z,12.69
2022-09-17T13:38:52.897Z,12.66
2022-09-17T13:41:18.926Z,12.65
2022-09-17T13:43:26.561Z,12.68
2022-09-17T13:45:28.375Z,12.68
2022-09-17T13:47:38.922Z,12.67
2022-09-17T13:49:50.711Z,12.63
2022-09-17T13:51:53.463Z,12.52
2022-09-17T13:53:56.596Z,12.40
2022-09-17T13:56:01.034Z,12.31
2022-09-17T13:58:23.483Z,12.21
2022-09-17T14:01:04.053Z,12.12
2022-09-17T14:03:34.865Z,12.05
2022-09-17T14:05:36.839Z,12.04
2022-09-17T14:07:47.401Z,12.08
2022-09-17T14:09:56.270Z,12.13
2022-09-17T14:11:57.721Z,12.19
2022-09-17T14:14:04.971Z,12.25
2022-09-17T14:16:25.351Z,12.32
2022-09-17T14:18:26.813Z,12.37
2022-09-17T14:20:29.935Z,12.37
2022-09-17T14:22:31.388Z,12.34
2022-09-17T14:24:58.759Z,12.30
2022-09-17T14:27:14.398Z,12.10
2022-09-17T14:30:04.309Z,11.89
2022-09-17T14:32:07.253Z,11.73
2022-09-17T14:34:19.918Z,11.64
2022-09-17T14:36:22.792Z,11.59
2022-09-17T14:38:47.191Z,11.52
2022-09-17T14:41:09.356Z,11.52
2022-09-17T14:43:19.711Z,11.53
2022-09-17T14:45:26.188Z,11.52
2022-09-17T14:47:27.679Z,11.52
2022-09-17T14:49:36.583Z,11.50
2022-09-17T14:51:40.228Z,11.53
2022-09-17T14:53:41.675Z,11.54
2022-09-17T14:55:44.746Z,11.56
2022-09-17T14:57:51.673Z,11.58
2022-09-17T14:59:56.022Z,11.60
2022-09-17T15:01:57.852Z,11.65
2022-09-17T15:04:14.352Z,11.70
2022-09-17T15:06:22.829Z,11.75
2022-09-17T15:08:28.877Z,11.82
2022-09-17T15:10:30.993Z,11.88
2022-09-17T15:12:32.487Z,11.94
2022-09-17T15:14:38.017Z,12.00
2022-09-17T15:16:46.551Z,12.02
2022-09-17T15:18:51.020Z,12.05
2022-09-17T15:20:54.791Z,12.09
2022-09-17T15:23:15.292Z,12.11
2022-09-17T15:25:23.759Z,12.13
2022-09-17T15:27:36.320Z,12.17
2022-09-17T15:29:43.031Z,12.19
2022-09-17T15:31:44.551Z,12.20
2022-09-17T15:33:47.493Z,12.21
2022-09-17T15:36:01.128Z,12.23
2022-09-17T15:38:22.896Z,12.25
2022-09-17T15:40:27.958Z,12.22
2022-09-17T15:42:30.966Z,12.22
2022-09-17T15:44:32.835Z,12.22
2022-09-17T15:46:34.364Z,12.21
2022-09-17T15:48:38.525Z,12.20
2022-09-17T15:50:54.614Z,12.18
2022-09-17T15:53:05.359Z,12.17
2022-09-17T15:55:31.046Z,12.14
2022-09-17T15:57:33.081Z,12.14
2022-09-17T15:59:35.252Z,12.15
2022-09-17T16:01:36.770Z,12.17
2022-09-17T16:03:38.389Z,12.19
2022-09-17T16:05:47.094Z,12.23
2022-09-17T16:07:48.421Z,12.21
2022-09-17T16:09:52.553Z,12.27
2022-09-17T16:11:54.266Z,12.30
2022-09-17T16:13:57.801Z,12.34
2022-09-17T16:15:59.382Z,12.34
2022-09-17T16:18:00.842Z,12.36
2022-09-17T16:20:28.618Z,12.35
2022-09-17T16:22:30.110Z,12.35
2022-09-17T16:24:31.936Z,12.36
2022-09-17T16:26:35.718Z,12.40
2022-09-17T16:28:37.260Z,12.40
2022-09-17T16:30:41.414Z,12.42
2022-09-17T16:32:43.023Z,12.43
2022-09-17T16:34:44.482Z,12.39
2022-09-17T16:36:45.976Z,12.30
2022-09-17T16:38:47.394Z,12.18
2022-09-17T16:40:48.880Z,12.03
2022-09-17T16:42:50.529Z,11.90
2022-09-17T16:44:51.937Z,11.79
2022-09-17T16:46:53.515Z,11.69
2022-09-17T16:48:54.995Z,11.60
2022-09-17T16:50:56.442Z,11.56
2022-09-17T16:53:01.498Z,11.49
2022-09-17T16:55:06.724Z,11.45
2022-09-17T16:57:08.153Z,11.44
2022-09-17T16:59:09.630Z,11.44
2022-09-17T17:01:14.122Z,11.44
2022-09-17T17:03:15.891Z,11.44
2022-09-17T17:05:17.333Z,11.46
2022-09-17T17:07:18.789Z,11.48
2022-09-17T17:09:20.220Z,11.50
2022-09-17T17:11:21.761Z,11.51
2022-09-17T17:13:23.235Z,11.52
2022-09-17T17:15:25.017Z,11.55
2022-09-17T17:17:26.524Z,11.56
2022-09-17T17:19:29.331Z,11.57
2022-09-17T17:21:30.772Z,11.57
2022-09-17T17:23:32.329Z,11.57
2022-09-17T17:25:34.579Z,11.58
2022-09-17T17:27:36.461Z,11.56
2022-09-17T17:29:38.025Z,11.55
2022-09-17T17:31:39.512Z,11.52
2022-09-17T17:33:41.068Z,11.51
2022-09-17T17:35:42.799Z,11.52
2022-09-17T17:37:44.319Z,11.52
2022-09-17T17:39:45.781Z,11.51
2022-09-17T17:41:51.522Z,11.52
2022-09-17T17:43:54.555Z,11.50
2022-09-17T17:45:55.974Z,11.49
2022-09-17T17:47:57.590Z,11.48
2022-09-17T17:49:59.154Z,11.44
2022-09-17T17:52:00.782Z,11.45
2022-09-17T17:54:02.280Z,11.41
2022-09-17T17:56:06.726Z,11.38
2022-09-17T17:58:08.150Z,11.36
2022-09-17T18:00:12.301Z,11.33
2022-09-17T18:02:13.853Z,11.30
2022-09-17T18:04:15.579Z,11.29
2022-09-17T18:06:17.055Z,11.28
2022-09-17T18:08:19.222Z,11.27
2022-09-17T18:10:20.922Z,11.26
2022-09-17T18:12:26.685Z,11.27
2022-09-17T18:14:28.510Z,11.29
2022-09-17T18:16:30.132Z,11.30
2022-09-17T18:18:42.153Z,11.33
2022-09-17T18:20:45.887Z,11.36
2022-09-17T18:22:47.380Z,11.36
2022-09-17T18:24:48.828Z,11.38
2022-09-17T18:26:50.244Z,11.38
2022-09-17T18:28:52.397Z,11.40
2022-09-17T18:30:54.593Z,11.42
2022-09-17T18:32:56.047Z,11.42
2022-09-17T18:34:57.499Z,11.41
2022-09-17T18:36:58.925Z,11.41
2022-09-17T18:39:56.481Z,11.40
2022-09-17T18:41:24.523Z,11.38
2022-09-17T18:43:25.976Z,11.37
2022-09-17T18:45:27.456Z,11.35
2022-09-17T18:47:28.902Z,11.36
2022-09-17T18:49:30.333Z,11.35
2022-09-17T18:51:32.137Z,11.36
2022-09-17T18:53:36.712Z,11.36
2022-09-17T18:55:38.144Z,11.34
2022-09-17T18:57:39.596Z,11.33
2022-09-17T18:59:41.061Z,11.32
2022-09-17T19:01:42.541Z,11.32
2022-09-17T19:03:44.247Z,11.31
2022-09-17T19:05:45.678Z,11.31
2022-09-17T19:07:47.636Z,11.30
2022-09-17T19:09:49.100Z,11.30
2022-09-17T19:11:50.553Z,11.28
2022-09-17T19:13:52.163Z,11.27
2022-09-17T19:15:59.475Z,11.26
2022-09-17T19:18:01.005Z,11.24
2022-09-17T19:20:04.053Z,11.24
2022-09-17T19:22:07.845Z,11.20
2022-09-17T19:24:09.709Z,11.17
2022-09-17T19:26:13.673Z,11.15
2022-09-17T19:28:15.164Z,11.11
2022-09-17T19:30:16.668Z,11.10
2022-09-17T19:32:18.084Z,11.09
2022-09-17T19:34:19.550Z,11.07
2022-09-17T19:36:21.571Z,11.06
2022-09-17T19:38:25.631Z,11.02
2022-09-17T19:40:28.652Z,11.00
2022-09-17T19:42:30.284Z,10.98
2022-09-17T19:44:31.803Z,10.98
2022-09-17T19:46:33.312Z,10.96
2022-09-17T19:48:38.093Z,10.95
2022-09-17T19:50:39.587Z,10.94
2022-09-17T19:52:41.242Z,10.93
2022-09-17T19:54:42.698Z,10.92
2022-09-17T19:56:44.161Z,10.92
2022-09-17T19:58:46.429Z,10.91
2022-09-17T20:00:47.896Z,10.92
2022-09-17T20:02:50.102Z,10.93
2022-09-17T20:04:51.580Z,10.93
2022-09-17T20:06:53.037Z,10.90
2022-09-17T20:08:54.753Z,10.91
2022-09-17T20:10:56.563Z,10.92
2022-09-17T20:12:58.731Z,10.92
2022-09-17T20:15:00.151Z,10.92
2022-09-17T20:17:01.627Z,10.90
2022-09-17T20:19:06.051Z,10.90
2022-09-17T20:21:09.365Z,10.87
2022-09-17T20:23:10.814Z,10.86
2022-09-17T20:25:12.291Z,10.81
2022-09-17T20:27:13.727Z,10.78
2022-09-17T20:29:15.327Z,10.75
2022-09-17T20:31:20.531Z,10.74
2022-09-17T20:33:24.150Z,10.69
2022-09-17T20:35:25.858Z,10.66
2022-09-17T20:38:08.327Z,10.67
2022-09-17T20:39:50.024Z,10.65
2022-09-17T20:41:51.501Z,10.65
2022-09-17T20:43:53.648Z,10.65
2022-09-17T20:45:55.658Z,10.64
2022-09-17T20:47:57.712Z,10.63
2022-09-17T20:49:59.137Z,10.61
2022-09-17T20:52:00.582Z,10.59
2022-09-17T20:54:02.407Z,10.58
2022-09-17T20:56:16.372Z,10.58
2022-09-17T20:58:20.058Z,10.56
2022-09-17T21:00:21.706Z,10.56
2022-09-17T21:02:23.274Z,10.54
2022-09-17T21:04:27.078Z,10.53
2022-09-17T21:06:31.372Z,10.52
2022-09-17T21:08:33.133Z,10.48
2022-09-17T21:10:34.686Z,10.47
2022-09-17T21:12:36.106Z,10.43
2022-09-17T21:14:38.168Z,10.38
2022-09-17T21:16:39.690Z,10.36
2022-09-17T21:18:42.044Z,10.33
2022-09-17T21:20:43.578Z,10.29
2022-09-17T21:22:45.074Z,10.26
2022-09-17T21:24:46.593Z,10.23
2022-09-17T21:26:49.718Z,10.19
2022-09-17T21:28:54.267Z,10.17
2022-09-17T21:31:02.698Z,10.14
2022-09-17T21:33:04.291Z,10.10
2022-09-17T21:35:06.043Z,10.06
2022-09-17T21:37:07.540Z,10.06
2022-09-17T21:39:14.891Z,10.05
2022-09-17T21:41:16.388Z,10.03
2022-09-17T21:43:17.880Z,10.02
2022-09-17T21:45:19.389Z,10.00
2022-09-17T21:47:20.805Z,9.99
2022-09-17T21:49:22.231Z,9.97
2022-09-17T21:51:30.447Z,9.96
2022-09-17T21:53:32.641Z,9.92
2022-09-17T21:55:34.166Z,9.92
2022-09-17T21:57:35.725Z,9.93
2022-09-17T21:59:37.156Z,9.94
2022-09-17T22:01:50.642Z,9.94
2022-09-17T22:03:53.864Z,9.97
2022-09-17T22:06:00.536Z,9.98
2022-09-17T22:08:02.208Z,10.00
2022-09-17T22:10:03.876Z,9.99
2022-09-17T22:12:06.473Z,10.00
2022-09-17T22:14:12.225Z,10.01
2022-09-17T22:16:13.883Z,9.98
2022-09-17T22:18:15.375Z,9.97
2022-09-17T22:20:16.928Z,9.97
2022-09-17T22:22:18.397Z,9.98
2022-09-17T22:24:21.576Z,9.98
2022-09-17T22:26:25.368Z,9.99
2022-09-17T22:28:27.366Z,10.00
2022-09-17T22:30:28.794Z,9.99
2022-09-17T22:32:30.233Z,9.98
2022-09-17T22:34:31.762Z,9.97
2022-09-17T22:36:33.198Z,9.97
2022-09-17T22:38:35.008Z,9.97
2022-09-17T22:40:37.055Z,9.98
2022-09-17T22:42:38.514Z,9.99
2022-09-17T22:44:41.019Z,9.98
2022-09-17T22:46:42.659Z,10.00
2022-09-17T22:48:44.201Z,9.99
2022-09-17T22:50:52.929Z,10.01
2022-09-17T22:52:54.385Z,10.03
2022-09-17T22:54:55.798Z,10.04
2022-09-17T22:56:57.320Z,10.07
2022-09-17T22:58:59.193Z,10.09
2022-09-17T23:01:13.368Z,10.10
2022-09-17T23:03:14.834Z,10.11
2022-09-17T23:05:16.412Z,10.10
2022-09-17T23:07:17.837Z,10.11
2022-09-17T23:09:19.248Z,10.09
2022-09-17T23:11:29.225Z,10.08
2022-09-17T23:13:31.089Z,10.07
2022-09-17T23:15:33.011Z,10.08
2022-09-17T23:17:35.592Z,10.10
2022-09-17T23:19:37.288Z,10.11
2022-09-17T23:21:39.024Z,10.10
2022-09-17T23:23:41.929Z,10.10
2022-09-17T23:25:43.338Z,10.13
2022-09-17T23:27:44.834Z,10.13
2022-09-17T23:29:46.360Z,10.14
2022-09-17T23:31:47.980Z,10.14
2022-09-17T23:33:50.466Z,10.14
2022-09-17T23:35:51.969Z,10.15
2022-09-17T23:37:53.429Z,10.16
2022-09-17T23:39:55.553Z,10.16
2022-09-17T23:41:57.047Z,10.16
2022-09-17T23:44:00.993Z,10.15
2022-09-17T23:46:02.557Z,10.15
2022-09-17T23:48:04.167Z,10.15
2022-09-17T23:50:06.290Z,10.15
2022-09-17T23:52:07.720Z,10.16
2022-09-17T23:54:09.888Z,10.15
2022-09-17T23:56:13.859Z,10.15
2022-09-17T23:58:16.395Z,10.14
